createdAt,value
2023-01-11T00:01:12.089Z,87.58
2023-01-11T00:03:39.877Z,87.42
2023-01-11T00:06:08.416Z,87.74
2023-01-11T00:08:36.278Z,86.98
2023-01-11T00:11:04.736Z,86.94
2023-01-11T00:13:34.403Z,86.70
2023-01-11T00:16:08.081Z,87.38
2023-01-11T00:18:36.938Z,87.57
2023-01-11T00:21:06.277Z,87.53
2023-01-11T00:23:35.025Z,87.01
2023-01-11T00:26:04.757Z,87.55
2023-01-11T00:28:34.731Z,86.91
2023-01-11T00:31:02.847Z,87.58
2023-01-11T00:33:30.888Z,86.99
2023-01-11T00:35:58.672Z,86.67
2023-01-11T00:38:46.717Z,87.20
2023-01-11T00:41:34.209Z,87.24
2023-01-11T00:44:22.008Z,86.45
2023-01-11T00:47:06.840Z,86.36
2023-01-11T00:49:34.848Z,86.13
2023-01-11T00:52:05.556Z,85.79
2023-01-11T00:54:33.360Z,86.00
2023-01-11T00:57:01.348Z,86.17
2023-01-11T00:59:30.827Z,86.31
2023-01-11T01:01:58.832Z,86.58
2023-01-11T01:04:26.985Z,86.49
2023-01-11T01:06:55.124Z,86.09
2023-01-11T01:09:23.608Z,86.54
2023-01-11T01:11:51.748Z,86.63
2023-01-11T01:14:29.007Z,86.43
2023-01-11T01:17:01.632Z,86.51
2023-01-11T01:19:31.179Z,86.62
2023-01-11T01:22:00.662Z,86.89
2023-01-11T01:24:30.720Z,86.75
2023-01-11T01:26:59.877Z,86.88
2023-01-11T01:29:27.680Z,86.74
2023-01-11T01:31:55.639Z,86.88
2023-01-11T01:34:25.196Z,86.99
2023-01-11T01:36:53.041Z,87.17
2023-01-11T01:39:20.957Z,87.27
2023-01-11T01:41:48.773Z,87.61
2023-01-11T01:45:07.265Z,87.35
2023-01-11T01:47:46.651Z,87.71
2023-01-11T01:50:23.975Z,87.79
2023-01-11T01:52:57.401Z,87.50
2023-01-11T01:55:31.529Z,87.76
2023-01-11T01:58:03.715Z,87.61
2023-01-11T02:00:33.120Z,87.81
2023-01-11T02:03:03.313Z,87.90
2023-01-11T02:05:32.702Z,87.59
2023-01-11T02:08:03.912Z,87.85
2023-01-11T02:10:34.168Z,87.61
2023-01-11T02:13:06.211Z,87.40
2023-01-11T02:15:34.096Z,87.42
2023-01-11T02:18:02.040Z,87.64
2023-01-11T02:21:01.620Z,87.46
2023-01-11T02:24:12.834Z,87.47
2023-01-11T02:27:30.317Z,88.13
2023-01-11T02:30:17.598Z,88.39
2023-01-11T02:33:00.173Z,88.32
2023-01-11T02:35:43.004Z,88.22
2023-01-11T02:38:25.233Z,87.98
2023-01-11T02:41:06.456Z,87.67
2023-01-11T02:44:02.894Z,87.67
2023-01-11T02:46:44.263Z,87.53
2023-01-11T02:49:34.654Z,87.59
2023-01-11T02:52:17.342Z,87.74
2023-01-11T02:54:54.492Z,87.78
2023-01-11T02:57:25.891Z,87.55
2023-01-11T02:59:57.929Z,87.60
2023-01-11T03:02:27.496Z,87.25
2023-01-11T03:04:55.312Z,86.95
2023-01-11T03:07:50.496Z,86.86
2023-01-11T03:10:36.830Z,87.21
2023-01-11T03:13:20.100Z,87.39
2023-01-11T03:16:25.243Z,87.82
2023-01-11T03:19:19.365Z,88.13
2023-01-11T03:22:00.646Z,88.10
2023-01-11T03:24:41.412Z,87.56
2023-01-11T03:27:31.379Z,87.29
2023-01-11T03:30:09.020Z,87.42
2023-01-11T03:32:47.407Z,87.77
2023-01-11T03:35:28.161Z,87.83
2023-01-11T03:38:05.020Z,87.61
2023-01-11T03:40:39.064Z,87.93
2023-01-11T03:43:12.598Z,87.66
2023-01-11T03:45:49.589Z,87.46
2023-01-11T03:48:24.716Z,87.37
2023-01-11T03:50:57.658Z,87.55
2023-01-11T03:53:31.327Z,87.41
2023-01-11T03:56:02.467Z,87.55
2023-01-11T03:58:31.118Z,87.11
2023-01-11T04:01:00.250Z,87.75
2023-01-11T04:03:28.534Z,87.86
2023-01-11T04:06:02.115Z,88.12
2023-01-11T04:08:31.075Z,88.26
2023-01-11T04:10:59.131Z,88.46
2023-01-11T04:13:27.192Z,88.08
2023-01-11T04:15:55.271Z,87.97
2023-01-11T04:18:23.466Z,87.90
2023-01-11T04:20:51.253Z,87.30
2023-01-11T04:23:20.547Z,87.60
2023-01-11T04:25:48.426Z,87.99
2023-01-11T04:28:16.944Z,87.51
2023-01-11T04:30:44.771Z,87.76
2023-01-11T04:33:14.426Z,87.58
2023-01-11T04:35:44.082Z,87.95
2023-01-11T04:38:12.156Z,87.90
2023-01-11T04:40:41.296Z,87.66
2023-01-11T04:43:08.093Z,87.07
2023-01-11T04:45:36.065Z,87.42
2023-01-11T04:48:03.839Z,87.98
2023-01-11T04:50:31.709Z,87.77
2023-01-11T04:53:00.055Z,87.58
2023-01-11T04:55:28.123Z,88.11
2023-01-11T04:57:57.275Z,88.30
2023-01-11T05:00:25.557Z,88.05
2023-01-11T05:02:53.343Z,88.10
2023-01-11T05:05:21.112Z,87.58
2023-01-11T05:07:50.205Z,87.87
2023-01-11T05:10:20.812Z,88.20
2023-01-11T05:12:48.856Z,88.18
2023-01-11T05:15:18.160Z,87.81
2023-01-11T05:17:46.200Z,86.92
2023-01-11T05:20:14.313Z,86.29
2023-01-11T05:22:42.332Z,85.62
2023-01-11T05:25:10.710Z,86.54
2023-01-11T05:27:38.677Z,86.64
2023-01-11T05:30:08.488Z,87.27
2023-01-11T05:32:37.673Z,86.25
2023-01-11T05:35:09.904Z,86.41
2023-01-11T05:37:37.685Z,86.69
2023-01-11T05:40:07.126Z,86.93
2023-01-11T05:42:34.952Z,86.69
2023-01-11T05:45:20.378Z,87.46
2023-01-11T05:47:49.506Z,87.52
2023-01-11T05:50:17.797Z,87.54
2023-01-11T05:52:45.609Z,88.38
2023-01-11T05:55:13.376Z,88.26
2023-01-11T05:57:42.563Z,87.69
2023-01-11T06:00:13.639Z,87.58
2023-01-11T06:02:41.602Z,87.42
2023-01-11T06:05:11.503Z,87.12
2023-01-11T06:07:40.072Z,86.78
2023-01-11T06:10:09.974Z,87.89
2023-01-11T06:12:37.817Z,87.72
2023-01-11T06:15:06.829Z,86.15
2023-01-11T06:17:34.606Z,86.20
2023-01-11T06:20:02.410Z,85.38
2023-01-11T06:22:31.803Z,85.17
2023-01-11T06:24:59.622Z,86.50
2023-01-11T06:27:27.432Z,85.16
2023-01-11T06:29:55.175Z,84.51
2023-01-11T06:32:23.140Z,83.94
2023-01-11T06:34:50.900Z,86.16
2023-01-11T06:37:18.630Z,85.96
2023-01-11T06:39:47.906Z,85.80
2023-01-11T06:42:15.640Z,85.90
2023-01-11T06:44:43.378Z,85.11
2023-01-11T06:47:11.178Z,85.06
2023-01-11T06:49:39.131Z,85.35
2023-01-11T06:52:06.917Z,83.52
2023-01-11T06:54:34.674Z,85.80
2023-01-11T06:57:03.938Z,85.36
2023-01-11T06:59:31.758Z,85.60
2023-01-11T07:02:00.017Z,86.03
2023-01-11T07:04:27.781Z,85.95
2023-01-11T07:06:56.288Z,86.70
2023-01-11T07:09:24.337Z,86.97
2023-01-11T07:11:52.300Z,85.87
2023-01-11T07:14:22.292Z,84.79
2023-01-11T07:16:50.059Z,84.78
2023-01-11T07:19:18.497Z,84.65
2023-01-11T07:21:46.259Z,84.39
2023-01-11T07:24:14.075Z,84.50
2023-01-11T07:26:42.368Z,85.66
2023-01-11T07:29:10.852Z,86.23
2023-01-11T07:31:40.032Z,85.97
2023-01-11T07:34:07.855Z,85.75
2023-01-11T07:36:39.347Z,86.84
2023-01-11T07:39:07.771Z,86.64
2023-01-11T07:41:53.020Z,86.80
2023-01-11T07:44:20.826Z,87.04
2023-01-11T07:46:50.288Z,87.04
2023-01-11T07:49:18.491Z,87.30
2023-01-11T07:51:46.265Z,87.54
2023-01-11T07:54:14.430Z,87.45
2023-01-11T07:56:42.240Z,87.45
2023-01-11T07:59:10.852Z,87.05
2023-01-11T08:01:38.758Z,86.97
2023-01-11T08:04:11.851Z,86.41
2023-01-11T08:06:40.219Z,86.04
2023-01-11T08:09:10.118Z,86.33
2023-01-11T08:11:55.207Z,86.84
2023-01-11T08:14:41.580Z,86.27
2023-01-11T08:17:11.950Z,86.69
2023-01-11T08:19:41.940Z,86.35
2023-01-11T08:22:10.245Z,86.61
2023-01-11T08:24:38.088Z,86.16
2023-01-11T08:27:06.597Z,85.07
2023-01-11T08:29:34.408Z,85.17
2023-01-11T08:32:02.383Z,85.92
2023-01-11T08:34:31.679Z,85.85
2023-01-11T08:37:02.155Z,85.83
2023-01-11T08:39:31.111Z,86.37
2023-01-11T08:41:59.130Z,85.57
2023-01-11T08:44:35.039Z,85.34
2023-01-11T08:47:03.288Z,84.26
2023-01-11T08:49:31.417Z,84.67
2023-01-11T08:51:59.612Z,84.62
2023-01-11T08:54:28.947Z,84.63
2023-01-11T08:56:57.026Z,84.15
2023-01-11T08:59:24.814Z,84.57
2023-01-11T09:01:52.829Z,84.72
2023-01-11T09:04:25.169Z,84.09
2023-01-11T09:06:54.357Z,85.27
2023-01-11T09:09:22.253Z,84.90
2023-01-11T09:12:00.238Z,83.99
2023-01-11T09:14:31.100Z,84.23
2023-01-11T09:17:00.190Z,83.43
2023-01-11T09:19:28.053Z,83.11
2023-01-11T09:22:00.703Z,83.53
2023-01-11T09:24:28.925Z,83.56
2023-01-11T09:27:00.459Z,83.92
2023-01-11T09:29:28.396Z,84.21
2023-01-11T09:31:56.235Z,83.50
2023-01-11T09:34:25.415Z,83.23
2023-01-11T09:36:53.299Z,83.00
2023-01-11T09:39:24.362Z,82.75
2023-01-11T09:42:18.501Z,82.81
2023-01-11T09:44:52.975Z,82.97
2023-01-11T09:47:40.583Z,81.96
2023-01-11T09:50:18.576Z,82.51
2023-01-11T09:52:52.846Z,82.42
2023-01-11T09:55:33.244Z,82.77
2023-01-11T09:58:29.190Z,82.42
2023-01-11T10:01:10.418Z,82.75
2023-01-11T10:04:22.218Z,82.20
2023-01-11T10:07:12.488Z,82.17
2023-01-11T10:18:27.585Z,81.86
2023-01-11T10:19:34.174Z,82.21
2023-01-11T10:22:01.329Z,81.46
2023-01-11T10:24:37.271Z,81.39
2023-01-11T10:27:18.704Z,81.41
2023-01-11T10:29:57.670Z,81.69
2023-01-11T10:32:53.138Z,81.83
2023-01-11T10:35:45.545Z,81.86
2023-01-11T10:38:42.622Z,81.89
2023-01-11T10:41:26.270Z,80.72
2023-01-11T10:44:17.558Z,80.55
2023-01-11T10:46:51.001Z,79.76
2023-01-11T10:49:46.022Z,78.77
2023-01-11T10:52:29.232Z,78.90
2023-01-11T10:54:58.930Z,79.22
2023-01-11T10:58:01.264Z,79.15
2023-01-11T11:00:42.273Z,79.91
2023-01-11T11:03:45.500Z,79.62
2023-01-11T11:06:32.720Z,78.13
2023-01-11T11:09:15.066Z,75.99
2023-01-11T11:11:53.230Z,78.68
2023-01-11T11:14:31.182Z,78.87
2023-01-11T11:17:14.377Z,78.90
2023-01-11T11:19:42.758Z,77.45
2023-01-11T11:22:12.940Z,75.22
2023-01-11T11:24:45.419Z,77.01
2023-01-11T11:27:25.533Z,75.17
2023-01-11T11:29:56.990Z,75.97
2023-01-11T11:32:31.398Z,73.75
2023-01-11T11:34:59.659Z,73.40
2023-01-11T11:37:35.466Z,70.96
2023-01-11T11:40:04.465Z,71.58
2023-01-11T11:42:32.467Z,71.88
2023-01-11T11:45:18.424Z,72.44
2023-01-11T11:48:03.636Z,73.28
2023-01-11T11:50:44.135Z,73.42
2023-01-11T11:53:28.837Z,72.65
2023-01-11T11:55:57.247Z,73.68
2023-01-11T11:58:28.245Z,73.41
2023-01-11T12:00:56.057Z,73.74
2023-01-11T12:03:30.548Z,73.63
2023-01-11T12:06:02.318Z,72.91
2023-01-11T12:08:36.144Z,74.05
2023-01-11T12:11:21.243Z,73.06
2023-01-11T12:14:03.887Z,72.16
2023-01-11T12:16:37.963Z,73.30
2023-01-11T12:19:27.274Z,72.16
2023-01-11T12:22:12.196Z,71.70
2023-01-11T12:24:41.306Z,70.93
2023-01-11T12:27:28.523Z,70.81
2023-01-11T12:30:19.950Z,70.93
2023-01-11T12:33:29.743Z,71.15
2023-01-11T12:36:06.825Z,72.14
2023-01-11T12:38:50.069Z,71.02
2023-01-11T12:41:50.391Z,70.48
2023-01-11T12:44:43.193Z,72.20
2023-01-11T12:47:50.203Z,70.92
2023-01-11T12:50:25.167Z,71.33
2023-01-11T12:53:15.378Z,71.21
2023-01-11T12:56:04.295Z,71.46
2023-01-11T12:58:41.907Z,71.53
2023-01-11T13:01:27.171Z,70.51
2023-01-11T13:04:46.439Z,69.64
2023-01-11T13:07:35.447Z,69.48
2023-01-11T13:10:23.561Z,69.08
2023-01-11T13:12:59.565Z,69.96
2023-01-11T13:15:43.868Z,70.77
2023-01-11T13:18:23.357Z,70.64
2023-01-11T13:21:02.221Z,68.96
2023-01-11T13:23:41.909Z,68.44
2023-01-11T13:26:23.784Z,66.38
2023-01-11T13:29:00.863Z,65.73
2023-01-11T13:31:33.114Z,65.23
2023-01-11T13:34:08.586Z,64.01
2023-01-11T13:36:45.487Z,62.83
2023-01-11T13:39:23.027Z,64.68
2023-01-11T13:41:56.719Z,65.72
2023-01-11T13:44:31.371Z,66.31
2023-01-11T13:47:14.732Z,67.99
2023-01-11T13:50:03.749Z,68.99
2023-01-11T13:52:53.945Z,67.89
2023-01-11T13:55:31.376Z,68.37
2023-01-11T13:58:11.568Z,66.05
2023-01-11T14:00:45.056Z,66.96
2023-01-11T14:03:27.426Z,66.91
2023-01-11T14:06:17.974Z,66.60
2023-01-11T14:09:08.469Z,66.08
2023-01-11T14:11:53.429Z,65.57
2023-01-11T14:14:51.175Z,67.49
2023-01-11T14:17:42.911Z,67.70
2023-01-11T14:20:27.240Z,66.75
2023-01-11T14:23:11.821Z,67.06
2023-01-11T14:26:05.666Z,67.13
2023-01-11T14:28:58.212Z,66.72
2023-01-11T14:32:04.651Z,66.23
2023-01-11T14:35:19.652Z,66.16
2023-01-11T14:38:22.105Z,66.33
2023-01-11T14:41:43.078Z,66.47
2023-01-11T14:44:46.520Z,66.42
2023-01-11T14:47:33.813Z,66.44
2023-01-11T14:50:22.203Z,66.29
2023-01-11T14:52:53.770Z,65.62
2023-01-11T14:55:28.823Z,65.15
2023-01-11T14:58:19.470Z,66.49
2023-01-11T15:01:11.978Z,66.02
2023-01-11T15:03:56.409Z,66.51
2023-01-11T15:06:24.886Z,67.57
2023-01-11T15:08:56.225Z,67.87
2023-01-11T15:11:43.059Z,68.30
2023-01-11T15:14:32.663Z,69.01
2023-01-11T15:17:20.652Z,68.63
2023-01-11T15:19:51.365Z,69.26
2023-01-11T15:22:29.195Z,68.38
2023-01-11T15:25:01.598Z,68.86
2023-01-11T15:27:35.630Z,69.02
2023-01-11T15:30:08.416Z,68.10
2023-01-11T15:32:37.690Z,68.83
2023-01-11T15:35:34.628Z,68.30
2023-01-11T15:38:17.900Z,69.52
2023-01-11T15:40:47.371Z,69.07
2023-01-11T15:43:59.536Z,69.20
2023-01-11T15:47:19.347Z,68.71
2023-01-11T15:50:39.469Z,68.11
2023-01-11T15:53:54.753Z,69.74
2023-01-11T15:57:11.688Z,68.72
2023-01-11T16:00:37.755Z,68.25
2023-01-11T16:03:31.184Z,68.37
2023-01-11T16:06:14.875Z,68.46
2023-01-11T16:09:00.159Z,68.10
2023-01-11T16:11:42.186Z,69.18
2023-01-11T16:14:45.975Z,68.61
2023-01-11T16:17:22.158Z,69.01
2023-01-11T16:19:55.262Z,69.34
2023-01-11T16:22:26.678Z,69.03
2023-01-11T16:24:59.840Z,68.73
2023-01-11T16:27:31.359Z,68.68
2023-01-11T16:29:59.517Z,68.36
2023-01-11T16:32:33.339Z,69.30
2023-01-11T16:35:03.563Z,68.86
2023-01-11T16:37:37.330Z,68.75
2023-01-11T16:40:15.237Z,68.39
2023-01-11T16:42:49.901Z,68.58
2023-01-11T16:45:22.635Z,68.35
2023-01-11T16:48:14.202Z,68.13
2023-01-11T16:50:49.403Z,68.44
2023-01-11T16:53:19.065Z,68.80
2023-01-11T16:56:02.910Z,68.90
2023-01-11T16:58:34.230Z,68.14
2023-01-11T17:01:05.654Z,68.71
2023-01-11T17:03:38.696Z,68.55
2023-01-11T17:06:21.375Z,68.44
2023-01-11T17:08:52.260Z,68.24
2023-01-11T17:11:33.079Z,68.63
2023-01-11T17:14:49.684Z,68.18
2023-01-11T17:17:19.659Z,68.52
2023-01-11T17:19:51.339Z,67.92
2023-01-11T17:22:23.655Z,67.98
2023-01-11T17:24:57.541Z,68.52
2023-01-11T17:27:33.085Z,68.67
2023-01-11T17:30:03.723Z,68.16
2023-01-11T17:32:38.633Z,68.52
2023-01-11T17:35:23.363Z,67.99
2023-01-11T17:37:54.338Z,67.87
2023-01-11T17:40:35.495Z,68.33
2023-01-11T17:43:24.388Z,67.66
2023-01-11T17:45:56.076Z,67.12
2023-01-11T17:48:24.819Z,66.61
2023-01-11T17:50:58.247Z,66.47
2023-01-11T17:53:29.427Z,66.33
2023-01-11T17:55:59.490Z,66.06
2023-01-11T17:58:29.350Z,66.71
2023-01-11T18:01:18.981Z,67.10
2023-01-11T18:03:51.944Z,67.44
2023-01-11T18:06:29.392Z,66.74
2023-01-11T18:09:00.653Z,66.36
2023-01-11T18:11:33.260Z,66.56
2023-01-11T18:14:06.664Z,66.22
2023-01-11T18:16:34.984Z,66.46
2023-01-11T18:19:23.696Z,66.15
2023-01-11T18:21:57.050Z,66.09
2023-01-11T18:24:44.976Z,65.25
2023-01-11T18:27:29.510Z,65.15
2023-01-11T18:30:06.021Z,65.85
2023-01-11T18:32:44.377Z,65.88
2023-01-11T18:35:19.132Z,65.53
2023-01-11T18:37:48.860Z,65.45
2023-01-11T18:40:19.041Z,65.73
2023-01-11T18:42:49.905Z,65.25
2023-01-11T18:45:18.294Z,65.90
2023-01-11T18:47:46.265Z,65.93
2023-01-11T18:50:14.643Z,66.09
2023-01-11T18:52:44.742Z,66.26
2023-01-11T18:55:15.569Z,66.84
2023-01-11T18:57:43.316Z,66.73
2023-01-11T19:00:16.791Z,66.93
2023-01-11T19:02:45.899Z,67.04
2023-01-11T19:05:18.547Z,67.60
2023-01-11T19:07:46.962Z,67.78
2023-01-11T19:10:19.964Z,68.20
2023-01-11T19:12:48.502Z,68.61
2023-01-11T19:15:17.866Z,68.98
2023-01-11T19:17:45.881Z,69.26
2023-01-11T19:20:14.205Z,70.14
2023-01-11T19:22:42.549Z,72.28
2023-01-11T19:25:11.735Z,73.61
2023-01-11T19:27:41.349Z,75.36
2023-01-11T19:30:12.004Z,75.50
2023-01-11T19:32:40.225Z,76.52
2023-01-11T19:35:09.160Z,76.38
2023-01-11T19:37:38.625Z,77.64
2023-01-11T19:40:09.413Z,77.99
2023-01-11T19:42:38.215Z,78.41
2023-01-11T19:45:09.388Z,79.13
2023-01-11T19:47:37.206Z,78.71
2023-01-11T19:50:06.446Z,78.84
2023-01-11T19:52:34.448Z,79.73
2023-01-11T19:55:02.552Z,79.65
2023-01-11T19:57:30.465Z,78.87
2023-01-11T19:59:58.357Z,79.60
2023-01-11T20:02:27.922Z,79.97
2023-01-11T20:04:55.996Z,80.28
2023-01-11T20:07:23.835Z,80.28
2023-01-11T20:09:51.713Z,79.44
2023-01-11T20:12:19.567Z,79.55
2023-01-11T20:14:47.697Z,78.95
2023-01-11T20:17:19.161Z,78.52
2023-01-11T20:19:54.496Z,78.80
2023-01-11T20:22:23.247Z,78.49
2023-01-11T20:24:51.495Z,78.72
2023-01-11T20:27:19.631Z,78.29
2023-01-11T20:29:47.884Z,78.62
2023-01-11T20:32:39.018Z,78.22
2023-01-11T20:35:07.525Z,78.00
2023-01-11T20:37:35.362Z,78.01
2023-01-11T20:40:03.341Z,78.30
2023-01-11T20:42:32.347Z,77.92
2023-01-11T20:45:00.162Z,79.59
2023-01-11T20:47:27.942Z,79.04
2023-01-11T20:49:55.758Z,79.84
2023-01-11T20:52:24.963Z,79.78
2023-01-11T20:54:52.791Z,80.01
2023-01-11T20:57:20.691Z,79.79
2023-01-11T20:59:48.600Z,80.25
2023-01-11T21:02:16.438Z,80.11
2023-01-11T21:04:44.295Z,79.67
2023-01-11T21:07:12.598Z,79.41
2023-01-11T21:09:42.360Z,79.37
2023-01-11T21:12:10.225Z,79.70
2023-01-11T21:14:38.159Z,78.86
2023-01-11T21:17:06.091Z,79.20
2023-01-11T21:19:33.905Z,79.29
2023-01-11T21:22:01.730Z,79.59
2023-01-11T21:24:29.795Z,79.22
2023-01-11T21:26:59.081Z,80.77
2023-01-11T21:29:26.891Z,80.03
2023-01-11T21:31:54.780Z,79.78
2023-01-11T21:34:23.667Z,79.71
2023-01-11T21:36:51.775Z,79.09
2023-01-11T21:39:24.827Z,79.95
2023-01-11T21:41:59.613Z,79.07
2023-01-11T21:44:33.928Z,79.11
2023-01-11T21:47:03.287Z,79.71
2023-01-11T21:49:31.301Z,79.68
2023-01-11T21:51:59.867Z,78.82
2023-01-11T21:54:27.933Z,78.64
2023-01-11T21:56:55.804Z,78.88
2023-01-11T21:59:24.436Z,78.99
2023-01-11T22:01:53.842Z,79.50
2023-01-11T22:04:23.441Z,78.95
2023-01-11T22:06:54.385Z,79.23
2023-01-11T22:09:23.527Z,78.65
2023-01-11T22:11:51.513Z,79.37
2023-01-11T22:14:21.358Z,79.58
2023-01-11T22:16:49.306Z,79.01
2023-01-11T22:19:18.971Z,78.72
2023-01-11T22:21:47.087Z,78.86
2023-01-11T22:24:15.599Z,79.29
2023-01-11T22:26:43.380Z,79.18
2023-01-11T22:29:15.493Z,79.90
2023-01-11T22:31:47.811Z,79.84
2023-01-11T22:34:18.188Z,80.08
2023-01-11T22:36:46.823Z,79.95
2023-01-11T22:39:19.329Z,79.89
2023-01-11T22:41:48.704Z,80.26
2023-01-11T22:44:17.434Z,80.13
2023-01-11T22:46:46.213Z,79.91
2023-01-11T22:49:14.930Z,80.13
2023-01-11T22:51:45.584Z,80.31
2023-01-11T22:54:14.100Z,79.85
2023-01-11T22:56:43.157Z,80.35
2023-01-11T22:59:11.831Z,79.75
2023-01-11T23:01:42.228Z,79.12
2023-01-11T23:04:14.449Z,78.42
2023-01-11T23:06:44.419Z,79.13
2023-01-11T23:09:17.042Z,80.33
2023-01-11T23:12:04.025Z,79.94
2023-01-11T23:14:33.893Z,81.02
2023-01-11T23:17:05.733Z,81.28
2023-01-11T23:19:36.004Z,81.99
2023-01-11T23:22:06.801Z,81.71
2023-01-11T23:24:36.175Z,82.00
2023-01-11T23:27:04.624Z,82.40
2023-01-11T23:29:32.887Z,82.05
2023-01-11T23:32:00.960Z,82.40
2023-01-11T23:34:29.211Z,83.14
2023-01-11T23:36:57.242Z,83.50
2023-01-11T23:39:26.681Z,82.37
2023-01-11T23:42:12.313Z,82.38
2023-01-11T23:44:40.097Z,82.92
2023-01-11T23:47:22.118Z,83.00
2023-01-11T23:49:51.298Z,82.46
2023-01-11T23:52:20.767Z,81.91
2023-01-11T23:54:49.995Z,82.52
2023-01-11T23:57:19.490Z,82.06
2023-01-11T23:59:47.820Z,82.19
